createdAt,value
2022-11-14T00:01:20.788Z,17.23
2022-11-14T00:04:08.399Z,19.23
2022-11-14T00:06:56.074Z,19.27
2022-11-14T00:09:43.661Z,19.03
2022-11-14T00:12:30.964Z,20.55
2022-11-14T00:15:18.756Z,22.25
2022-11-14T00:18:08.055Z,20.00
2022-11-14T00:20:55.701Z,19.87
2022-11-14T00:23:43.494Z,19.62
2022-11-14T00:26:31.585Z,23.42
2022-11-14T00:29:19.252Z,24.17
2022-11-14T00:32:08.054Z,20.57
2022-11-14T00:34:55.573Z,19.53
2022-11-14T00:37:42.773Z,27.60
2022-11-14T00:40:30.417Z,21.87
2022-11-14T00:43:18.077Z,19.17
2022-11-14T00:46:06.706Z,25.97
2022-11-14T00:48:54.217Z,24.53
2022-11-14T00:51:41.726Z,21.40
2022-11-14T00:54:29.544Z,25.10
2022-11-14T00:57:17.406Z,23.05
2022-11-14T01:00:07.619Z,23.03
2022-11-14T01:02:58.371Z,26.30
2022-11-14T01:05:48.301Z,25.77
2022-11-14T01:08:36.257Z,22.37
2022-11-14T01:11:24.962Z,23.73
2022-11-14T01:14:13.135Z,27.40
2022-11-14T01:17:00.590Z,28.73
2022-11-14T01:19:47.955Z,29.10
2022-11-14T01:22:35.421Z,30.07
2022-11-14T01:25:22.843Z,26.48
2022-11-14T01:28:12.799Z,32.83
2022-11-14T01:31:14.707Z,33.07
2022-11-14T01:34:02.177Z,29.93
2022-11-14T01:36:49.916Z,30.97
2022-11-14T01:39:37.660Z,32.05
2022-11-14T01:42:27.435Z,33.23
2022-11-14T01:45:49.967Z,30.97
2022-11-14T01:48:48.631Z,36.33
2022-11-14T01:51:42.204Z,38.17
2022-11-14T01:54:35.553Z,32.20
2022-11-14T01:57:26.195Z,32.80
2022-11-14T02:00:15.587Z,37.08
2022-11-14T02:03:03.977Z,29.33
2022-11-14T02:05:53.056Z,31.13
2022-11-14T02:08:41.057Z,33.23
2022-11-14T02:11:31.903Z,36.35
2022-11-14T02:14:19.311Z,32.10
2022-11-14T02:17:28.354Z,32.23
2022-11-14T02:20:14.471Z,34.35
2022-11-14T02:23:02.198Z,36.23
2022-11-14T02:25:50.126Z,40.15
2022-11-14T02:28:37.469Z,36.73
2022-11-14T02:31:24.982Z,35.93
2022-11-14T02:34:14.737Z,34.95
2022-11-14T02:37:02.554Z,35.55
2022-11-14T02:39:50.176Z,40.85
2022-11-14T02:42:38.071Z,37.87
2022-11-14T02:45:26.493Z,35.58
2022-11-14T02:48:14.069Z,39.80
2022-11-14T02:51:01.267Z,38.37
2022-11-14T02:53:48.883Z,40.20
2022-11-14T02:56:36.306Z,37.83
2022-11-14T02:59:23.738Z,39.43
2022-11-14T03:02:11.154Z,36.80
2022-11-14T03:04:58.459Z,40.13
2022-11-14T03:07:45.984Z,39.40
2022-11-14T03:10:33.615Z,43.92
2022-11-14T03:13:21.037Z,39.93
2022-11-14T03:16:11.227Z,42.37
2022-11-14T03:18:58.684Z,43.17
2022-11-14T03:21:46.030Z,45.93
2022-11-14T03:27:39.483Z,45.10
2022-11-14T03:30:26.895Z,45.30
2022-11-14T03:33:14.506Z,49.97
2022-11-14T03:36:02.113Z,42.87
2022-11-14T03:38:49.512Z,47.87
2022-11-14T03:41:36.862Z,43.70
2022-11-14T03:44:24.073Z,48.70
2022-11-14T03:47:11.477Z,44.27
2022-11-14T03:49:59.039Z,49.93
2022-11-14T03:52:47.960Z,43.13
2022-11-14T03:55:35.184Z,46.23
2022-11-14T03:58:22.883Z,46.10
2022-11-14T04:01:10.578Z,45.13
2022-11-14T04:03:57.717Z,46.50
2022-11-14T04:06:45.950Z,45.03
2022-11-14T04:09:33.654Z,45.77
2022-11-14T04:12:21.152Z,47.65
2022-11-14T04:15:09.175Z,43.73
2022-11-14T04:17:56.611Z,43.43
2022-11-14T04:20:43.979Z,47.07
2022-11-14T04:23:31.045Z,45.27
2022-11-14T04:26:18.836Z,45.60
2022-11-14T04:29:06.061Z,49.20
2022-11-14T04:31:53.430Z,44.30
2022-11-14T04:34:40.892Z,45.77
2022-11-14T04:37:28.693Z,44.50
2022-11-14T04:40:16.377Z,39.70
2022-11-14T04:43:03.797Z,46.43
2022-11-14T04:45:51.308Z,46.40
2022-11-14T04:48:39.068Z,42.17
2022-11-14T04:51:27.128Z,42.48
2022-11-14T04:54:14.189Z,46.35
2022-11-14T04:57:01.767Z,44.67
2022-11-14T04:59:49.623Z,43.92
2022-11-14T05:02:37.024Z,49.37
2022-11-14T05:05:24.067Z,52.57
2022-11-14T05:08:11.703Z,47.70
2022-11-14T05:10:59.358Z,43.93
2022-11-14T05:13:47.341Z,46.73
2022-11-14T05:16:34.176Z,43.90
2022-11-14T05:19:22.114Z,44.53
2022-11-14T05:22:11.352Z,42.43
2022-11-14T05:24:58.670Z,42.47
2022-11-14T05:27:46.030Z,43.87
2022-11-14T05:30:33.807Z,47.93
2022-11-14T05:33:21.008Z,43.77
2022-11-14T05:36:13.623Z,43.35
2022-11-14T05:39:01.055Z,45.40
2022-11-14T05:41:48.986Z,45.23
2022-11-14T05:44:36.938Z,43.70
2022-11-14T05:47:24.156Z,42.95
2022-11-14T05:50:11.933Z,44.60
2022-11-14T05:52:59.496Z,41.70
2022-11-14T05:55:47.623Z,43.30
2022-11-14T05:58:36.042Z,42.47
2022-11-14T06:01:23.939Z,41.80
2022-11-14T06:04:14.639Z,43.87
2022-11-14T06:07:02.155Z,41.97
2022-11-14T06:09:49.759Z,45.57
2022-11-14T06:12:37.485Z,39.43
2022-11-14T06:15:24.908Z,42.30
2022-11-14T06:18:12.629Z,37.45
2022-11-14T06:21:04.606Z,42.90
2022-11-14T06:23:52.392Z,41.67
2022-11-14T06:26:39.762Z,42.47
2022-11-14T06:29:32.645Z,40.70
2022-11-14T06:32:16.899Z,40.03
2022-11-14T06:35:04.644Z,41.13
2022-11-14T06:37:52.245Z,38.13
2022-11-14T06:40:39.388Z,39.03
2022-11-14T06:43:27.350Z,40.47
2022-11-14T06:46:17.947Z,40.20
2022-11-14T06:49:05.425Z,37.63
2022-11-14T06:51:53.301Z,36.63
2022-11-14T06:54:40.455Z,37.17
2022-11-14T06:57:28.604Z,50.43
2022-11-14T07:00:16.657Z,35.07
2022-11-14T07:03:04.079Z,40.03
2022-11-14T07:05:51.510Z,39.80
2022-11-14T07:08:39.385Z,36.80
2022-11-14T07:11:30.107Z,39.18
2022-11-14T07:14:17.651Z,39.20
2022-11-14T07:17:05.331Z,39.98
2022-11-14T07:19:52.712Z,44.30
2022-11-14T07:22:40.371Z,37.57
2022-11-14T07:25:27.869Z,38.87
2022-11-14T07:28:15.161Z,36.27
2022-11-14T07:31:06.073Z,37.73
2022-11-14T07:33:53.758Z,36.13
2022-11-14T07:36:41.083Z,40.73
2022-11-14T07:39:28.724Z,37.17
2022-11-14T07:42:15.963Z,41.42
2022-11-14T07:45:03.424Z,40.27
2022-11-14T07:47:50.781Z,37.50
2022-11-14T07:50:38.704Z,41.53
2022-11-14T07:53:25.853Z,40.13
2022-11-14T07:56:13.607Z,41.83
2022-11-14T07:59:00.887Z,40.53
2022-11-14T08:01:48.320Z,34.90
2022-11-14T08:04:35.996Z,38.67
2022-11-14T08:07:23.249Z,32.63
2022-11-14T08:10:14.167Z,34.70
2022-11-14T08:13:30.355Z,33.67
2022-11-14T08:15:52.957Z,32.10
2022-11-14T08:18:40.260Z,30.93
2022-11-14T08:21:27.764Z,27.73
2022-11-14T08:24:15.393Z,24.00
2022-11-14T08:27:02.783Z,25.33
2022-11-14T08:29:51.084Z,23.00
2022-11-14T08:32:38.797Z,25.70
2022-11-14T08:35:26.427Z,21.97
2022-11-14T08:38:14.227Z,21.45
2022-11-14T08:41:04.177Z,18.50
2022-11-14T08:43:51.437Z,20.03
2022-11-14T08:46:39.546Z,20.72
2022-11-14T08:49:27.423Z,21.63
2022-11-14T08:52:16.852Z,21.93
2022-11-14T08:55:03.743Z,20.83
2022-11-14T08:57:54.650Z,18.83
2022-11-14T09:00:42.286Z,20.60
2022-11-14T09:03:30.054Z,19.60
2022-11-14T09:06:17.228Z,18.43
2022-11-14T09:09:04.957Z,19.73
2022-11-14T09:11:53.102Z,20.23
2022-11-14T09:14:40.489Z,20.17
2022-11-14T09:17:27.853Z,20.27
2022-11-14T09:20:15.965Z,22.83
2022-11-14T09:23:04.380Z,22.93
2022-11-14T09:25:52.083Z,18.77
2022-11-14T09:28:39.854Z,20.40
2022-11-14T09:31:27.297Z,19.33
2022-11-14T09:34:14.705Z,17.03
2022-11-14T09:37:02.802Z,18.57
2022-11-14T09:39:50.270Z,17.37
2022-11-14T09:43:05.226Z,18.97
2022-11-14T09:45:54.293Z,17.55
2022-11-14T09:48:41.890Z,19.33
2022-11-14T09:51:32.579Z,18.10
2022-11-14T09:54:31.653Z,17.40
2022-11-14T09:57:21.147Z,20.50
2022-11-14T10:00:16.185Z,19.48
2022-11-14T10:03:33.458Z,17.95
2022-11-14T10:06:38.556Z,17.33
2022-11-14T10:09:50.536Z,20.52
2022-11-14T10:13:00.564Z,20.05
2022-11-14T10:15:51.063Z,21.97
2022-11-14T10:19:15.562Z,19.23
2022-11-14T10:22:11.691Z,21.05
2022-11-14T10:25:21.886Z,20.05
2022-11-14T10:28:30.773Z,24.70
2022-11-14T10:31:37.486Z,21.33
2022-11-14T10:34:28.305Z,20.60
2022-11-14T10:37:24.830Z,20.43
2022-11-14T10:43:29.732Z,24.05
2022-11-14T10:46:20.088Z,21.60
2022-11-14T10:49:24.356Z,20.90
2022-11-14T10:52:17.445Z,21.70
2022-11-14T10:55:17.100Z,22.33
2022-11-14T10:58:16.253Z,23.52
2022-11-14T11:01:40.884Z,31.77
2022-11-14T11:04:31.358Z,23.83
2022-11-14T11:07:42.694Z,22.87
2022-11-14T11:10:49.528Z,23.57
2022-11-14T11:13:40.030Z,27.43
2022-11-14T11:16:29.890Z,26.82
2022-11-14T11:19:29.929Z,30.23
2022-11-14T11:22:39.879Z,33.17
2022-11-14T11:25:30.698Z,37.83
2022-11-14T11:28:22.972Z,37.03
2022-11-14T11:31:12.494Z,36.93
2022-11-14T11:34:03.272Z,38.40
2022-11-14T11:36:53.898Z,41.87
2022-11-14T11:39:44.332Z,38.65
2022-11-14T11:43:23.624Z,35.43
2022-11-14T11:45:28.792Z,32.70
2022-11-14T11:48:24.573Z,33.43
2022-11-14T11:51:17.993Z,38.45
2022-11-14T11:54:18.351Z,40.13
2022-11-14T11:57:08.980Z,36.43
2022-11-14T12:00:01.734Z,37.20
2022-11-14T12:02:52.152Z,36.73
2022-11-14T12:05:58.745Z,36.43
2022-11-14T12:09:21.952Z,34.20
2022-11-14T12:12:18.080Z,35.00
2022-11-14T12:15:32.725Z,34.57
2022-11-14T12:18:47.933Z,38.88
2022-11-14T12:21:58.879Z,36.58
2022-11-14T12:24:57.627Z,40.37
2022-11-14T12:27:56.860Z,34.17
2022-11-14T12:30:47.206Z,35.37
2022-11-14T12:33:37.225Z,31.17
2022-11-14T12:36:28.140Z,35.55
2022-11-14T12:39:31.133Z,37.47
2022-11-14T12:42:21.438Z,36.73
2022-11-14T12:45:28.832Z,36.20
2022-11-14T12:48:30.595Z,35.93
2022-11-14T12:51:30.180Z,39.23
2022-11-14T12:54:45.308Z,39.30
2022-11-14T12:57:47.753Z,42.67
2022-11-14T13:00:38.533Z,40.63
2022-11-14T13:03:29.683Z,35.43
2022-11-14T13:06:35.027Z,42.80
2022-11-14T13:09:28.023Z,39.55
2022-11-14T13:15:49.152Z,49.18
2022-11-14T13:18:53.716Z,39.57
2022-11-14T13:21:47.348Z,48.33
2022-11-14T13:25:03.016Z,41.30
2022-11-14T13:28:07.291Z,45.38
2022-11-14T13:31:07.623Z,39.83
2022-11-14T13:34:00.402Z,42.10
2022-11-14T13:37:13.005Z,40.27
2022-11-14T13:40:11.928Z,41.97
2022-11-14T13:43:34.032Z,39.03
2022-11-14T13:46:36.399Z,40.05
2022-11-14T13:49:32.463Z,46.07
2022-11-14T13:52:20.647Z,44.73
2022-11-14T13:55:08.332Z,38.53
2022-11-14T13:58:10.673Z,41.37
2022-11-14T14:01:27.859Z,41.47
2022-11-14T14:04:50.953Z,38.20
2022-11-14T14:08:12.513Z,43.90
2022-11-14T14:11:05.703Z,46.87
2022-11-14T14:13:56.308Z,41.77
2022-11-14T14:16:49.919Z,39.77
2022-11-14T14:20:13.493Z,41.37
2022-11-14T14:23:09.662Z,47.87
2022-11-14T14:26:02.933Z,40.73
2022-11-14T14:29:06.354Z,41.68
2022-11-14T14:31:53.879Z,41.23
2022-11-14T14:34:42.807Z,39.57
2022-11-14T14:37:32.278Z,35.17
2022-11-14T14:40:38.126Z,37.97
2022-11-14T14:43:28.574Z,41.67
2022-11-14T14:46:15.947Z,40.17
2022-11-14T14:49:05.322Z,42.03
2022-11-14T14:51:58.101Z,40.47
2022-11-14T14:54:42.522Z,34.70
2022-11-14T14:57:31.563Z,37.73
2022-11-14T15:00:26.739Z,39.03
2022-11-14T15:03:14.500Z,41.07
2022-11-14T15:06:04.300Z,44.70
2022-11-14T15:08:51.814Z,46.47
2022-11-14T15:11:42.396Z,38.63
2022-11-14T15:14:35.741Z,39.33
2022-11-14T15:17:24.945Z,38.45
2022-11-14T15:20:29.657Z,41.77
2022-11-14T15:23:21.856Z,39.60
2022-11-14T15:26:20.288Z,36.68
2022-11-14T15:29:21.392Z,36.83
2022-11-14T15:32:20.412Z,35.62
2022-11-14T15:35:11.786Z,40.03
2022-11-14T15:38:43.469Z,35.80
2022-11-14T15:41:23.086Z,36.33
2022-11-14T15:44:34.211Z,34.53
2022-11-14T15:47:30.596Z,34.90
2022-11-14T15:50:21.065Z,38.80
2022-11-14T15:53:23.804Z,32.70
2022-11-14T15:56:14.895Z,36.40
2022-11-14T15:59:02.960Z,35.40
2022-11-14T16:01:54.213Z,35.20
2022-11-14T16:04:47.218Z,32.70
2022-11-14T16:07:31.318Z,31.60
2022-11-14T16:10:21.242Z,43.50
2022-11-14T16:13:08.828Z,35.93
2022-11-14T16:15:56.522Z,40.17
2022-11-14T16:18:43.713Z,33.67
2022-11-14T16:21:31.746Z,32.80
2022-11-14T16:24:22.125Z,30.83
2022-11-14T16:27:09.845Z,28.23
2022-11-14T16:29:57.367Z,33.07
2022-11-14T16:32:46.954Z,29.47
2022-11-14T16:35:34.914Z,36.35
2022-11-14T16:38:22.022Z,32.95
2022-11-14T16:41:11.967Z,32.97
2022-11-14T16:43:59.394Z,30.63
2022-11-14T16:46:47.218Z,34.97
2022-11-14T16:49:34.619Z,35.98
2022-11-14T16:52:22.044Z,32.70
2022-11-14T16:55:10.597Z,37.57
2022-11-14T16:57:58.292Z,34.67
2022-11-14T17:00:45.809Z,29.13
2022-11-14T17:03:34.092Z,34.70
2022-11-14T17:06:21.332Z,34.70
2022-11-14T17:09:09.078Z,36.67
2022-11-14T17:11:56.530Z,45.40
2022-11-14T17:14:43.700Z,31.43
2022-11-14T17:17:32.304Z,37.70
2022-11-14T17:20:19.477Z,36.60
2022-11-14T17:23:07.025Z,32.73
2022-11-14T17:25:54.172Z,34.70
2022-11-14T17:28:43.112Z,33.87
2022-11-14T17:31:35.117Z,42.13
2022-11-14T17:34:20.962Z,34.10
2022-11-14T17:37:08.465Z,43.13
2022-11-14T17:39:55.785Z,34.53
2022-11-14T17:42:43.286Z,35.90
2022-11-14T17:45:30.845Z,31.40
2022-11-14T17:48:18.587Z,34.85
2022-11-14T17:51:10.215Z,36.87
2022-11-14T17:53:57.510Z,36.05
2022-11-14T17:56:49.657Z,30.85
2022-11-14T17:59:36.335Z,33.83
2022-11-14T18:02:23.267Z,36.98
2022-11-14T18:07:57.020Z,33.07
2022-11-14T18:10:45.455Z,30.97
2022-11-14T18:13:33.032Z,31.43
2022-11-14T18:16:21.421Z,34.10
2022-11-14T18:19:08.674Z,32.47
2022-11-14T18:21:56.265Z,35.83
2022-11-14T18:24:44.842Z,33.70
2022-11-14T18:27:32.183Z,32.20
2022-11-14T18:30:40.372Z,34.40
2022-11-14T18:33:08.834Z,142.43
2022-11-14T18:36:00.056Z,54.63
2022-11-14T18:38:47.694Z,39.85
2022-11-14T18:41:35.394Z,31.93
2022-11-14T18:44:24.130Z,34.53
2022-11-14T18:47:11.587Z,33.87
2022-11-14T18:50:00.818Z,36.70
2022-11-14T18:52:48.601Z,32.53
2022-11-14T18:55:40.576Z,29.85
2022-11-14T18:58:27.983Z,34.13
2022-11-14T19:01:22.970Z,31.40
2022-11-14T19:04:12.880Z,30.90
2022-11-14T19:07:01.041Z,31.00
2022-11-14T19:09:48.327Z,33.70
2022-11-14T19:12:35.654Z,34.07
2022-11-14T19:15:23.076Z,36.07
2022-11-14T19:18:11.765Z,35.18
2022-11-14T19:21:00.874Z,32.97
2022-11-14T19:23:50.274Z,35.47
2022-11-14T19:26:37.801Z,29.40
2022-11-14T19:29:25.307Z,32.53
2022-11-14T19:32:13.086Z,36.57
2022-11-14T19:35:00.635Z,33.73
2022-11-14T19:37:48.284Z,34.97
2022-11-14T19:40:40.277Z,30.52
2022-11-14T19:43:28.078Z,36.23
2022-11-14T19:46:20.707Z,35.08
2022-11-14T19:49:08.272Z,37.27
2022-11-14T19:51:55.824Z,37.23
2022-11-14T19:57:49.727Z,40.80
2022-11-14T20:00:37.835Z,36.37
2022-11-14T20:03:25.608Z,39.38
2022-11-14T20:06:18.750Z,31.90
2022-11-14T20:09:09.231Z,32.53
2022-11-14T20:11:56.813Z,35.43
2022-11-14T20:14:44.400Z,35.65
2022-11-14T20:17:33.234Z,32.80
2022-11-14T20:20:20.683Z,35.53
2022-11-14T20:23:07.978Z,33.17
2022-11-14T20:25:57.099Z,29.80
2022-11-14T20:28:46.635Z,31.57
2022-11-14T20:31:33.886Z,34.37
2022-11-14T20:34:21.098Z,31.33
2022-11-14T20:37:11.365Z,30.40
2022-11-14T20:39:57.550Z,28.27
2022-11-14T20:42:49.074Z,26.70
2022-11-14T20:45:36.479Z,32.80
2022-11-14T20:48:24.616Z,29.82
2022-11-14T20:51:21.068Z,31.73
2022-11-14T20:54:10.498Z,30.70
2022-11-14T20:56:57.879Z,27.10
2022-11-14T20:59:45.151Z,29.87
2022-11-14T21:02:33.777Z,31.50
2022-11-14T21:05:20.666Z,26.85
2022-11-14T21:08:10.021Z,28.45
2022-11-14T21:11:02.962Z,25.83
2022-11-14T21:13:59.304Z,26.80
2022-11-14T21:16:46.499Z,31.27
2022-11-14T21:19:33.894Z,34.37
2022-11-14T21:22:21.403Z,32.70
2022-11-14T21:25:09.217Z,32.97
2022-11-14T21:27:57.057Z,27.97
2022-11-14T21:30:45.126Z,32.10
2022-11-14T21:39:11.684Z,33.07
2022-11-14T21:41:59.056Z,30.27
2022-11-14T21:44:46.498Z,29.90
2022-11-14T21:47:35.212Z,34.53
2022-11-14T21:50:22.526Z,32.05
2022-11-14T21:53:11.718Z,32.23
2022-11-14T21:55:59.710Z,28.75
2022-11-14T21:58:47.304Z,30.40
2022-11-14T22:01:52.876Z,29.73
2022-11-14T22:04:40.348Z,30.27
2022-11-14T22:07:28.206Z,24.83
2022-11-14T22:10:15.634Z,31.52
2022-11-14T22:13:03.134Z,34.70
2022-11-14T22:15:50.871Z,26.13
2022-11-14T22:18:38.674Z,30.73
2022-11-14T22:21:26.719Z,31.93
2022-11-14T22:24:14.685Z,26.40
2022-11-14T22:27:02.048Z,31.60
2022-11-14T22:29:49.535Z,28.23
2022-11-14T22:32:36.642Z,32.43
2022-11-14T22:35:24.063Z,28.32
2022-11-14T22:38:11.264Z,31.80
2022-11-14T22:40:59.582Z,29.93
2022-11-14T22:43:47.357Z,30.43
2022-11-14T22:46:34.732Z,37.67
2022-11-14T22:49:22.273Z,30.47
2022-11-14T22:52:11.180Z,38.63
2022-11-14T22:54:58.952Z,43.40
2022-11-14T22:57:46.375Z,43.47
2022-11-14T23:00:34.052Z,44.77
2022-11-14T23:03:22.868Z,48.10
2022-11-14T23:06:13.716Z,59.50
2022-11-14T23:09:02.616Z,45.93
2022-11-14T23:11:50.261Z,49.03
2022-11-14T23:14:37.702Z,48.43
2022-11-14T23:17:25.484Z,48.98
2022-11-14T23:20:16.572Z,43.23
2022-11-14T23:23:04.532Z,52.90
2022-11-14T23:25:51.988Z,48.83
2022-11-14T23:28:40.092Z,51.90
2022-11-14T23:31:27.543Z,53.73
2022-11-14T23:34:14.923Z,56.17
2022-11-14T23:37:02.715Z,51.00
2022-11-14T23:39:49.826Z,43.67
2022-11-14T23:42:37.278Z,51.93
2022-11-14T23:48:10.942Z,50.70
2022-11-14T23:50:58.584Z,42.13
2022-11-14T23:53:47.253Z,49.67
2022-11-14T23:56:35.086Z,45.93
2022-11-14T23:59:22.687Z,47.40
